sensor_id;sensor_type;location;lat;lon;timestamp;temperature;humidity
3408;DHT22;1717;50.240;8.406;2022-09-09T00:01:54;17.90;99.90
3408;DHT22;1717;50.240;8.406;2022-09-09T00:04:27;17.90;99.90
3408;DHT22;1717;50.240;8.406;2022-09-09T00:07:01;17.90;99.90
3408;DHT22;1717;50.240;8.406;2022-09-09T00:09:35;17.80;99.90
3408;DHT22;1717;50.240;8.406;2022-09-09T00:12:11;17.80;99.90
3408;DHT22;1717;50.240;8.406;2022-09-09T00:14:45;17.80;99.90
3408;DHT22;1717;50.240;8.406;2022-09-09T00:17:21;17.80;99.90
3408;DHT22;1717;50.240;8.406;2022-09-09T00:19:56;17.90;99.90
3408;DHT22;1717;50.240;8.406;2022-09-09T00:22:29;17.80;99.90
3408;DHT22;1717;50.240;8.406;2022-09-09T00:25:04;17.90;99.90
3408;DHT22;1717;50.240;8.406;2022-09-09T00:27:40;17.90;99.90
3408;DHT22;1717;50.240;8.406;2022-09-09T00:30:15;17.90;99.90
3408;DHT22;1717;50.240;8.406;2022-09-09T00:32:45;17.90;99.90
3408;DHT22;1717;50.240;8.406;2022-09-09T00:35:17;17.90;99.90
3408;DHT22;1717;50.240;8.406;2022-09-09T00:37:46;17.80;99.90
3408;DHT22;1717;50.240;8.406;2022-09-09T00:40:23;17.80;99.90
3408;DHT22;1717;50.240;8.406;2022-09-09T00:42:59;17.80;99.90
3408;DHT22;1717;50.240;8.406;2022-09-09T00:45:52;17.70;99.90
3408;DHT22;1717;50.240;8.406;2022-09-09T00:48:24;17.70;99.90
3408;DHT22;1717;50.240;8.406;2022-09-09T00:50:55;17.70;99.90
3408;DHT22;1717;50.240;8.406;2022-09-09T00:53:33;17.70;99.90
3408;DHT22;1717;50.240;8.406;2022-09-09T00:56:11;17.70;99.90
3408;DHT22;1717;50.240;8.406;2022-09-09T00:58:39;17.70;99.90
3408;DHT22;1717;50.240;8.406;2022-09-09T01:01:11;17.70;99.90
3408;DHT22;1717;50.240;8.406;2022-09-09T01:03:42;17.60;99.90
3408;DHT22;1717;50.240;8.406;2022-09-09T01:06:16;17.70;99.90
3408;DHT22;1717;50.240;8.406;2022-09-09T01:11:49;17.60;99.90
3408;DHT22;1717;50.240;8.406;2022-09-09T01:14:35;17.60;99.90
3408;DHT22;1717;50.240;8.406;2022-09-09T01:17:09;17.60;99.90
3408;DHT22;1717;50.240;8.406;2022-09-09T01:19:45;17.60;99.90
3408;DHT22;1717;50.240;8.406;2022-09-09T01:22:22;17.60;99.90
3408;DHT22;1717;50.240;8.406;2022-09-09T01:25:11;17.60;99.90
3408;DHT22;1717;50.240;8.406;2022-09-09T01:27:43;17.50;99.90
3408;DHT22;1717;50.240;8.406;2022-09-09T01:30:11;17.50;99.90
3408;DHT22;1717;50.240;8.406;2022-09-09T01:32:42;17.50;99.90
3408;DHT22;1717;50.240;8.406;2022-09-09T01:35:11;17.30;99.90
3408;DHT22;1717;50.240;8.406;2022-09-09T01:37:39;17.50;99.90
3408;DHT22;1717;50.240;8.406;2022-09-09T01:40:07;17.50;99.90
3408;DHT22;1717;50.240;8.406;2022-09-09T01:42:34;17.40;99.90
3408;DHT22;1717;50.240;8.406;2022-09-09T01:45:04;17.40;99.90
3408;DHT22;1717;50.240;8.406;2022-09-09T01:47:31;17.50;99.90
3408;DHT22;1717;50.240;8.406;2022-09-09T01:49:59;17.50;99.90
3408;DHT22;1717;50.240;8.406;2022-09-09T01:52:26;17.40;99.90
3408;DHT22;1717;50.240;8.406;2022-09-09T01:54:53;17.40;99.90
3408;DHT22;1717;50.240;8.406;2022-09-09T01:57:23;17.40;99.90
3408;DHT22;1717;50.240;8.406;2022-09-09T02:00:03;17.40;99.90
3408;DHT22;1717;50.240;8.406;2022-09-09T02:02:38;17.40;99.90
3408;DHT22;1717;50.240;8.406;2022-09-09T02:05:16;17.20;99.90
3408;DHT22;1717;50.240;8.406;2022-09-09T02:07:47;17.20;99.90
3408;DHT22;1717;50.240;8.406;2022-09-09T02:10:19;17.20;99.90
3408;DHT22;1717;50.240;8.406;2022-09-09T02:12:49;17.20;99.90
3408;DHT22;1717;50.240;8.406;2022-09-09T02:15:23;17.20;99.90
3408;DHT22;1717;50.240;8.406;2022-09-09T02:17:54;17.10;99.90
3408;DHT22;1717;50.240;8.406;2022-09-09T02:20:24;17.10;99.90
3408;DHT22;1717;50.240;8.406;2022-09-09T02:22:53;17.00;99.90
3408;DHT22;1717;50.240;8.406;2022-09-09T02:25:23;17.10;99.90
3408;DHT22;1717;50.240;8.406;2022-09-09T02:27:51;17.00;99.90
3408;DHT22;1717;50.240;8.406;2022-09-09T02:30:19;16.90;99.90
3408;DHT22;1717;50.240;8.406;2022-09-09T02:32:49;16.80;99.90
3408;DHT22;1717;50.240;8.406;2022-09-09T02:35:19;16.70;99.90
3408;DHT22;1717;50.240;8.406;2022-09-09T02:37:47;16.80;99.90
3408;DHT22;1717;50.240;8.406;2022-09-09T02:40:15;16.90;99.90
3408;DHT22;1717;50.240;8.406;2022-09-09T02:42:43;16.80;99.90
3408;DHT22;1717;50.240;8.406;2022-09-09T02:45:12;16.80;99.90
3408;DHT22;1717;50.240;8.406;2022-09-09T02:47:43;16.90;99.90
3408;DHT22;1717;50.240;8.406;2022-09-09T02:50:13;16.90;99.90
3408;DHT22;1717;50.240;8.406;2022-09-09T02:52:50;17.00;99.90
3408;DHT22;1717;50.240;8.406;2022-09-09T02:55:29;17.00;99.90
3408;DHT22;1717;50.240;8.406;2022-09-09T02:58:03;17.00;99.90
3408;DHT22;1717;50.240;8.406;2022-09-09T03:00:31;17.10;99.90
3408;DHT22;1717;50.240;8.406;2022-09-09T03:03:00;17.00;99.90
3408;DHT22;1717;50.240;8.406;2022-09-09T03:05:27;17.00;99.90
3408;DHT22;1717;50.240;8.406;2022-09-09T03:07:53;17.10;99.90
3408;DHT22;1717;50.240;8.406;2022-09-09T03:10:20;17.10;99.90
3408;DHT22;1717;50.240;8.406;2022-09-09T03:12:47;17.20;99.90
3408;DHT22;1717;50.240;8.406;2022-09-09T03:15:14;17.20;99.90
3408;DHT22;1717;50.240;8.406;2022-09-09T03:17:41;17.20;99.90
3408;DHT22;1717;50.240;8.406;2022-09-09T03:20:10;17.20;99.90
3408;DHT22;1717;50.240;8.406;2022-09-09T03:22:37;17.20;99.90
3408;DHT22;1717;50.240;8.406;2022-09-09T03:25:05;17.20;99.90
3408;DHT22;1717;50.240;8.406;2022-09-09T03:27:32;17.30;99.90
3408;DHT22;1717;50.240;8.406;2022-09-09T03:29:59;17.30;99.90
3408;DHT22;1717;50.240;8.406;2022-09-09T03:32:29;17.30;99.90
3408;DHT22;1717;50.240;8.406;2022-09-09T03:34:57;17.30;99.90
3408;DHT22;1717;50.240;8.406;2022-09-09T03:37:25;17.30;99.90
3408;DHT22;1717;50.240;8.406;2022-09-09T03:39:52;17.30;99.90
3408;DHT22;1717;50.240;8.406;2022-09-09T03:42:20;17.20;99.90
3408;DHT22;1717;50.240;8.406;2022-09-09T03:44:47;17.30;99.90
3408;DHT22;1717;50.240;8.406;2022-09-09T03:47:15;17.30;99.90
3408;DHT22;1717;50.240;8.406;2022-09-09T03:49:42;17.30;99.90
3408;DHT22;1717;50.240;8.406;2022-09-09T03:52:09;17.30;99.90
3408;DHT22;1717;50.240;8.406;2022-09-09T03:54:37;17.30;99.90
3408;DHT22;1717;50.240;8.406;2022-09-09T03:57:04;17.30;99.90
3408;DHT22;1717;50.240;8.406;2022-09-09T03:59:31;17.30;99.90
3408;DHT22;1717;50.240;8.406;2022-09-09T04:01:58;17.30;99.90
3408;DHT22;1717;50.240;8.406;2022-09-09T04:04:25;17.30;99.90
3408;DHT22;1717;50.240;8.406;2022-09-09T04:06:52;17.30;99.90
3408;DHT22;1717;50.240;8.406;2022-09-09T04:09:19;17.30;99.90
3408;DHT22;1717;50.240;8.406;2022-09-09T04:11:48;17.30;99.90
3408;DHT22;1717;50.240;8.406;2022-09-09T04:14:15;17.30;99.90
3408;DHT22;1717;50.240;8.406;2022-09-09T04:16:42;17.30;99.90
3408;DHT22;1717;50.240;8.406;2022-09-09T04:19:10;17.30;99.90
3408;DHT22;1717;50.240;8.406;2022-09-09T04:21:38;17.30;99.90
3408;DHT22;1717;50.240;8.406;2022-09-09T04:24:06;17.20;99.90
3408;DHT22;1717;50.240;8.406;2022-09-09T04:26:33;17.30;99.90
3408;DHT22;1717;50.240;8.406;2022-09-09T04:29:01;17.30;99.90
3408;DHT22;1717;50.240;8.406;2022-09-09T04:31:28;17.30;99.90
3408;DHT22;1717;50.240;8.406;2022-09-09T04:33:55;17.30;99.90
3408;DHT22;1717;50.240;8.406;2022-09-09T04:36:22;17.30;99.90
3408;DHT22;1717;50.240;8.406;2022-09-09T04:38:49;17.30;99.90
3408;DHT22;1717;50.240;8.406;2022-09-09T04:41:16;17.30;99.90
3408;DHT22;1717;50.240;8.406;2022-09-09T04:43:43;17.30;99.90
3408;DHT22;1717;50.240;8.406;2022-09-09T04:46:12;17.30;99.90
3408;DHT22;1717;50.240;8.406;2022-09-09T04:48:38;17.30;99.90
3408;DHT22;1717;50.240;8.406;2022-09-09T04:51:07;17.30;99.90
3408;DHT22;1717;50.240;8.406;2022-09-09T04:53:35;17.30;99.90
3408;DHT22;1717;50.240;8.406;2022-09-09T04:56:04;17.30;99.90
3408;DHT22;1717;50.240;8.406;2022-09-09T04:58:31;17.30;99.90
3408;DHT22;1717;50.240;8.406;2022-09-09T05:01:04;17.30;99.90
3408;DHT22;1717;50.240;8.406;2022-09-09T05:03:32;17.30;99.90
3408;DHT22;1717;50.240;8.406;2022-09-09T05:06:05;17.30;99.90
3408;DHT22;1717;50.240;8.406;2022-09-09T05:08:33;17.20;99.90
3408;DHT22;1717;50.240;8.406;2022-09-09T05:11:01;17.20;99.90
3408;DHT22;1717;50.240;8.406;2022-09-09T05:13:28;17.30;99.90
3408;DHT22;1717;50.240;8.406;2022-09-09T05:15:57;17.30;99.90
3408;DHT22;1717;50.240;8.406;2022-09-09T05:18:24;17.20;99.90
3408;DHT22;1717;50.240;8.406;2022-09-09T05:20:52;17.20;99.90
3408;DHT22;1717;50.240;8.406;2022-09-09T05:23:24;17.10;99.90
3408;DHT22;1717;50.240;8.406;2022-09-09T05:25:58;17.20;99.90
3408;DHT22;1717;50.240;8.406;2022-09-09T05:28:25;17.20;99.90
3408;DHT22;1717;50.240;8.406;2022-09-09T05:30:59;17.20;99.90
3408;DHT22;1717;50.240;8.406;2022-09-09T05:33:29;17.20;99.90
3408;DHT22;1717;50.240;8.406;2022-09-09T05:36:01;17.20;99.90
3408;DHT22;1717;50.240;8.406;2022-09-09T05:38:29;17.10;99.90
3408;DHT22;1717;50.240;8.406;2022-09-09T05:40:57;17.10;99.90
3408;DHT22;1717;50.240;8.406;2022-09-09T05:43:24;17.10;99.90
3408;DHT22;1717;50.240;8.406;2022-09-09T05:46:00;17.10;99.90
3408;DHT22;1717;50.240;8.406;2022-09-09T05:48:28;17.10;99.90
3408;DHT22;1717;50.240;8.406;2022-09-09T05:50:56;17.00;99.90
3408;DHT22;1717;50.240;8.406;2022-09-09T05:53:24;16.90;99.90
3408;DHT22;1717;50.240;8.406;2022-09-09T05:55:59;17.00;99.90
3408;DHT22;1717;50.240;8.406;2022-09-09T05:58:27;17.00;99.90
3408;DHT22;1717;50.240;8.406;2022-09-09T06:01:00;17.10;99.90
3408;DHT22;1717;50.240;8.406;2022-09-09T06:03:27;17.00;99.90
3408;DHT22;1717;50.240;8.406;2022-09-09T06:05:58;17.10;99.90
3408;DHT22;1717;50.240;8.406;2022-09-09T06:08:26;17.10;99.90
3408;DHT22;1717;50.240;8.406;2022-09-09T06:10:53;17.00;99.90
3408;DHT22;1717;50.240;8.406;2022-09-09T06:13:22;17.00;99.90
3408;DHT22;1717;50.240;8.406;2022-09-09T06:15:50;17.00;99.90
3408;DHT22;1717;50.240;8.406;2022-09-09T06:18:17;17.00;99.90
3408;DHT22;1717;50.240;8.406;2022-09-09T06:20:53;17.00;99.90
3408;DHT22;1717;50.240;8.406;2022-09-09T06:23:21;17.00;99.90
3408;DHT22;1717;50.240;8.406;2022-09-09T06:25:49;17.00;99.90
3408;DHT22;1717;50.240;8.406;2022-09-09T06:28:17;17.10;99.90
3408;DHT22;1717;50.240;8.406;2022-09-09T06:30:44;17.10;99.90
3408;DHT22;1717;50.240;8.406;2022-09-09T06:33:13;17.10;99.90
3408;DHT22;1717;50.240;8.406;2022-09-09T06:35:40;17.10;99.90
3408;DHT22;1717;50.240;8.406;2022-09-09T06:38:07;17.20;99.90
3408;DHT22;1717;50.240;8.406;2022-09-09T06:40:34;17.20;99.90
3408;DHT22;1717;50.240;8.406;2022-09-09T06:43:02;17.20;99.90
3408;DHT22;1717;50.240;8.406;2022-09-09T06:45:29;17.20;99.90
3408;DHT22;1717;50.240;8.406;2022-09-09T06:47:58;17.30;99.90
3408;DHT22;1717;50.240;8.406;2022-09-09T06:50:25;17.30;99.90
3408;DHT22;1717;50.240;8.406;2022-09-09T06:52:52;17.30;99.90
3408;DHT22;1717;50.240;8.406;2022-09-09T06:55:20;17.30;99.90
3408;DHT22;1717;50.240;8.406;2022-09-09T06:57:48;17.30;99.90
3408;DHT22;1717;50.240;8.406;2022-09-09T07:00:18;17.30;99.90
3408;DHT22;1717;50.240;8.406;2022-09-09T07:02:46;17.30;99.90
3408;DHT22;1717;50.240;8.406;2022-09-09T07:05:17;17.30;99.90
3408;DHT22;1717;50.240;8.406;2022-09-09T07:07:45;17.30;99.90
3408;DHT22;1717;50.240;8.406;2022-09-09T07:10:13;17.30;99.90
3408;DHT22;1717;50.240;8.406;2022-09-09T07:12:40;17.30;99.90
3408;DHT22;1717;50.240;8.406;2022-09-09T07:15:08;17.20;99.90
3408;DHT22;1717;50.240;8.406;2022-09-09T07:17:38;17.20;99.90
3408;DHT22;1717;50.240;8.406;2022-09-09T07:20:06;17.30;99.90
3408;DHT22;1717;50.240;8.406;2022-09-09T07:22:34;17.20;99.90
3408;DHT22;1717;50.240;8.406;2022-09-09T07:25:02;17.30;99.90
3408;DHT22;1717;50.240;8.406;2022-09-09T07:27:29;17.30;99.90
3408;DHT22;1717;50.240;8.406;2022-09-09T07:29:57;17.30;99.90
3408;DHT22;1717;50.240;8.406;2022-09-09T07:32:25;17.30;99.90
3408;DHT22;1717;50.240;8.406;2022-09-09T07:34:55;17.40;99.90
3408;DHT22;1717;50.240;8.406;2022-09-09T07:37:24;17.40;99.90
3408;DHT22;1717;50.240;8.406;2022-09-09T07:39:52;17.50;99.90
3408;DHT22;1717;50.240;8.406;2022-09-09T07:42:19;17.50;99.90
3408;DHT22;1717;50.240;8.406;2022-09-09T07:44:46;17.60;99.90
3408;DHT22;1717;50.240;8.406;2022-09-09T07:47:13;17.60;99.90
3408;DHT22;1717;50.240;8.406;2022-09-09T07:49:40;17.60;99.90
3408;DHT22;1717;50.240;8.406;2022-09-09T07:52:08;17.60;99.90
3408;DHT22;1717;50.240;8.406;2022-09-09T07:54:36;17.60;99.90
3408;DHT22;1717;50.240;8.406;2022-09-09T07:57:03;17.50;99.90
3408;DHT22;1717;50.240;8.406;2022-09-09T07:59:30;17.50;99.90
3408;DHT22;1717;50.240;8.406;2022-09-09T08:01:58;17.50;99.90
3408;DHT22;1717;50.240;8.406;2022-09-09T08:04:26;17.60;99.90
3408;DHT22;1717;50.240;8.406;2022-09-09T08:06:55;17.60;99.90
3408;DHT22;1717;50.240;8.406;2022-09-09T08:09:25;17.70;99.90
3408;DHT22;1717;50.240;8.406;2022-09-09T08:11:54;17.70;99.90
3408;DHT22;1717;50.240;8.406;2022-09-09T08:14:22;17.70;99.90
3408;DHT22;1717;50.240;8.406;2022-09-09T08:16:50;17.80;99.90
3408;DHT22;1717;50.240;8.406;2022-09-09T08:19:18;17.90;99.90
3408;DHT22;1717;50.240;8.406;2022-09-09T08:21:45;18.00;99.90
3408;DHT22;1717;50.240;8.406;2022-09-09T08:24:13;18.10;99.90
3408;DHT22;1717;50.240;8.406;2022-09-09T08:26:43;18.20;99.90
3408;DHT22;1717;50.240;8.406;2022-09-09T08:29:12;18.30;99.90
3408;DHT22;1717;50.240;8.406;2022-09-09T08:31:40;18.40;99.90
3408;DHT22;1717;50.240;8.406;2022-09-09T08:34:08;18.50;99.90
3408;DHT22;1717;50.240;8.406;2022-09-09T08:36:37;18.60;99.90
3408;DHT22;1717;50.240;8.406;2022-09-09T08:39:05;18.70;99.90
3408;DHT22;1717;50.240;8.406;2022-09-09T08:41:56;18.80;99.90
3408;DHT22;1717;50.240;8.406;2022-09-09T08:44:32;18.90;99.90
3408;DHT22;1717;50.240;8.406;2022-09-09T08:47:07;19.00;99.90
3408;DHT22;1717;50.240;8.406;2022-09-09T08:49:55;19.10;99.90
3408;DHT22;1717;50.240;8.406;2022-09-09T08:52:28;19.20;99.90
3408;DHT22;1717;50.240;8.406;2022-09-09T08:54:58;19.30;99.90
3408;DHT22;1717;50.240;8.406;2022-09-09T08:57:31;19.40;99.90
3408;DHT22;1717;50.240;8.406;2022-09-09T08:59:59;19.50;99.90
3408;DHT22;1717;50.240;8.406;2022-09-09T09:02:30;19.60;99.90
3408;DHT22;1717;50.240;8.406;2022-09-09T09:05:16;19.60;99.90
3408;DHT22;1717;50.240;8.406;2022-09-09T09:07:55;19.70;99.90
3408;DHT22;1717;50.240;8.406;2022-09-09T09:10:34;19.80;99.90
3408;DHT22;1717;50.240;8.406;2022-09-09T09:13:10;19.80;99.90
3408;DHT22;1717;50.240;8.406;2022-09-09T09:15:38;19.80;99.90
3408;DHT22;1717;50.240;8.406;2022-09-09T09:18:10;19.90;99.90
3408;DHT22;1717;50.240;8.406;2022-09-09T09:20:45;19.90;99.90
3408;DHT22;1717;50.240;8.406;2022-09-09T09:23:17;20.00;99.90
3408;DHT22;1717;50.240;8.406;2022-09-09T09:25:47;20.10;99.90
3408;DHT22;1717;50.240;8.406;2022-09-09T09:28:20;20.10;99.90
3408;DHT22;1717;50.240;8.406;2022-09-09T09:30:52;20.20;99.90
3408;DHT22;1717;50.240;8.406;2022-09-09T09:33:24;20.20;99.90
3408;DHT22;1717;50.240;8.406;2022-09-09T09:35:54;20.30;99.70
3408;DHT22;1717;50.240;8.406;2022-09-09T09:38:22;20.30;99.60
3408;DHT22;1717;50.240;8.406;2022-09-09T09:40:50;20.30;99.30
3408;DHT22;1717;50.240;8.406;2022-09-09T09:43:25;20.40;99.20
3408;DHT22;1717;50.240;8.406;2022-09-09T09:45:53;20.50;98.60
3408;DHT22;1717;50.240;8.406;2022-09-09T09:48:21;20.50;98.70
3408;DHT22;1717;50.240;8.406;2022-09-09T09:50:49;20.60;98.30
3408;DHT22;1717;50.240;8.406;2022-09-09T09:53:21;20.60;98.00
3408;DHT22;1717;50.240;8.406;2022-09-09T09:55:53;20.70;97.70
3408;DHT22;1717;50.240;8.406;2022-09-09T09:58:22;20.70;97.70
3408;DHT22;1717;50.240;8.406;2022-09-09T10:00:51;20.70;96.80
3408;DHT22;1717;50.240;8.406;2022-09-09T10:03:22;20.80;97.00
3408;DHT22;1717;50.240;8.406;2022-09-09T10:05:50;20.90;96.80
3408;DHT22;1717;50.240;8.406;2022-09-09T10:08:17;20.90;96.60
3408;DHT22;1717;50.240;8.406;2022-09-09T10:11:05;20.90;96.20
3408;DHT22;1717;50.240;8.406;2022-09-09T10:13:42;20.90;96.10
3408;DHT22;1717;50.240;8.406;2022-09-09T10:16:22;21.00;96.10
3408;DHT22;1717;50.240;8.406;2022-09-09T10:18:59;21.00;95.60
3408;DHT22;1717;50.240;8.406;2022-09-09T10:24:49;21.00;95.50
3408;DHT22;1717;50.240;8.406;2022-09-09T10:27:25;21.00;94.90
3408;DHT22;1717;50.240;8.406;2022-09-09T10:30:11;21.00;94.40
3408;DHT22;1717;50.240;8.406;2022-09-09T10:32:47;21.00;94.40
3408;DHT22;1717;50.240;8.406;2022-09-09T10:35:27;21.00;93.70
3408;DHT22;1717;50.240;8.406;2022-09-09T10:38:16;21.00;93.30
3408;DHT22;1717;50.240;8.406;2022-09-09T10:43:46;21.10;92.60
3408;DHT22;1717;50.240;8.406;2022-09-09T10:46:26;21.10;92.60
3408;DHT22;1717;50.240;8.406;2022-09-09T10:49:08;21.10;92.00
3408;DHT22;1717;50.240;8.406;2022-09-09T10:51:43;21.20;92.00
3408;DHT22;1717;50.240;8.406;2022-09-09T10:54:25;21.20;91.50
3408;DHT22;1717;50.240;8.406;2022-09-09T10:56:59;21.30;91.40
3408;DHT22;1717;50.240;8.406;2022-09-09T10:59:33;21.30;91.40
3408;DHT22;1717;50.240;8.406;2022-09-09T11:02:10;21.40;91.10
3408;DHT22;1717;50.240;8.406;2022-09-09T11:04:41;21.40;90.70
3408;DHT22;1717;50.240;8.406;2022-09-09T11:07:12;21.40;90.80
3408;DHT22;1717;50.240;8.406;2022-09-09T11:09:43;21.40;90.80
3408;DHT22;1717;50.240;8.406;2022-09-09T11:12:17;21.40;90.60
3408;DHT22;1717;50.240;8.406;2022-09-09T11:14:48;21.40;90.50
3408;DHT22;1717;50.240;8.406;2022-09-09T11:17:21;21.40;90.00
3408;DHT22;1717;50.240;8.406;2022-09-09T11:19:49;21.40;90.10
3408;DHT22;1717;50.240;8.406;2022-09-09T11:22:23;21.50;90.10
3408;DHT22;1717;50.240;8.406;2022-09-09T11:24:57;21.50;89.00
3408;DHT22;1717;50.240;8.406;2022-09-09T11:27:29;21.50;88.20
3408;DHT22;1717;50.240;8.406;2022-09-09T11:30:19;21.50;88.00
3408;DHT22;1717;50.240;8.406;2022-09-09T11:33:11;21.50;88.00
3408;DHT22;1717;50.240;8.406;2022-09-09T11:36:02;21.50;86.00
3408;DHT22;1717;50.240;8.406;2022-09-09T11:38:39;21.40;85.40
3408;DHT22;1717;50.240;8.406;2022-09-09T11:41:11;21.50;86.00
3408;DHT22;1717;50.240;8.406;2022-09-09T11:43:41;21.50;86.00
3408;DHT22;1717;50.240;8.406;2022-09-09T11:46:08;21.50;85.30
3408;DHT22;1717;50.240;8.406;2022-09-09T11:48:38;21.50;85.30
3408;DHT22;1717;50.240;8.406;2022-09-09T11:51:10;21.50;85.70
3408;DHT22;1717;50.240;8.406;2022-09-09T11:53:48;21.60;85.30
3408;DHT22;1717;50.240;8.406;2022-09-09T11:56:25;21.60;85.20
3408;DHT22;1717;50.240;8.406;2022-09-09T11:58:59;21.60;84.80
3408;DHT22;1717;50.240;8.406;2022-09-09T12:01:37;21.60;84.40
3408;DHT22;1717;50.240;8.406;2022-09-09T12:04:36;21.70;83.90
3408;DHT22;1717;50.240;8.406;2022-09-09T12:07:24;21.70;83.50
3408;DHT22;1717;50.240;8.406;2022-09-09T12:09:57;21.70;83.20
3408;DHT22;1717;50.240;8.406;2022-09-09T12:12:29;21.70;83.50
3408;DHT22;1717;50.240;8.406;2022-09-09T12:17:44;21.80;83.00
3408;DHT22;1717;50.240;8.406;2022-09-09T12:20:15;21.80;83.60
3408;DHT22;1717;50.240;8.406;2022-09-09T12:22:56;21.70;81.70
3408;DHT22;1717;50.240;8.406;2022-09-09T12:25:32;21.80;82.40
3408;DHT22;1717;50.240;8.406;2022-09-09T12:28:05;21.80;83.00
3408;DHT22;1717;50.240;8.406;2022-09-09T12:30:47;21.80;83.60
3408;DHT22;1717;50.240;8.406;2022-09-09T12:33:18;21.80;83.80
3408;DHT22;1717;50.240;8.406;2022-09-09T12:35:51;21.80;83.60
3408;DHT22;1717;50.240;8.406;2022-09-09T12:38:25;21.80;83.50
3408;DHT22;1717;50.240;8.406;2022-09-09T12:40:56;21.80;83.70
3408;DHT22;1717;50.240;8.406;2022-09-09T12:43:25;21.80;83.50
3408;DHT22;1717;50.240;8.406;2022-09-09T12:45:54;21.80;84.30
3408;DHT22;1717;50.240;8.406;2022-09-09T12:48:28;21.80;86.50
3408;DHT22;1717;50.240;8.406;2022-09-09T12:50:59;21.80;87.50
3408;DHT22;1717;50.240;8.406;2022-09-09T12:53:29;21.80;87.70
3408;DHT22;1717;50.240;8.406;2022-09-09T12:55:59;21.80;87.40
3408;DHT22;1717;50.240;8.406;2022-09-09T12:58:29;21.80;88.50
3408;DHT22;1717;50.240;8.406;2022-09-09T13:00:59;21.90;88.00
3408;DHT22;1717;50.240;8.406;2022-09-09T13:03:27;22.10;88.40
3408;DHT22;1717;50.240;8.406;2022-09-09T13:06:10;22.20;87.00
3408;DHT22;1717;50.240;8.406;2022-09-09T13:08:37;22.30;85.60
3408;DHT22;1717;50.240;8.406;2022-09-09T13:11:08;22.30;85.20
3408;DHT22;1717;50.240;8.406;2022-09-09T13:13:38;22.40;84.50
3408;DHT22;1717;50.240;8.406;2022-09-09T13:16:17;22.40;83.90
3408;DHT22;1717;50.240;8.406;2022-09-09T13:18:44;22.50;83.20
3408;DHT22;1717;50.240;8.406;2022-09-09T13:21:13;22.50;83.00
3408;DHT22;1717;50.240;8.406;2022-09-09T13:23:41;22.60;82.70
3408;DHT22;1717;50.240;8.406;2022-09-09T13:26:22;22.70;82.60
3408;DHT22;1717;50.240;8.406;2022-09-09T13:28:50;22.70;81.20
3408;DHT22;1717;50.240;8.406;2022-09-09T13:31:23;22.70;80.90
3408;DHT22;1717;50.240;8.406;2022-09-09T13:33:52;22.70;79.80
3408;DHT22;1717;50.240;8.406;2022-09-09T13:36:30;22.70;79.70
3408;DHT22;1717;50.240;8.406;2022-09-09T13:38:59;22.80;80.10
3408;DHT22;1717;50.240;8.406;2022-09-09T13:41:30;22.90;79.50
3408;DHT22;1717;50.240;8.406;2022-09-09T13:44:01;23.00;79.70
3408;DHT22;1717;50.240;8.406;2022-09-09T13:46:33;23.10;78.50
3408;DHT22;1717;50.240;8.406;2022-09-09T13:49:18;23.10;78.80
3408;DHT22;1717;50.240;8.406;2022-09-09T13:51:49;23.30;78.70
3408;DHT22;1717;50.240;8.406;2022-09-09T13:54:18;23.30;78.10
3408;DHT22;1717;50.240;8.406;2022-09-09T13:56:46;23.40;77.90
3408;DHT22;1717;50.240;8.406;2022-09-09T13:59:16;23.50;77.60
3408;DHT22;1717;50.240;8.406;2022-09-09T14:01:46;23.50;76.90
3408;DHT22;1717;50.240;8.406;2022-09-09T14:04:13;23.50;76.60
3408;DHT22;1717;50.240;8.406;2022-09-09T14:06:41;23.50;75.80
3408;DHT22;1717;50.240;8.406;2022-09-09T14:09:13;23.40;76.20
3408;DHT22;1717;50.240;8.406;2022-09-09T14:11:41;23.40;75.40
3408;DHT22;1717;50.240;8.406;2022-09-09T14:14:08;23.30;75.60
3408;DHT22;1717;50.240;8.406;2022-09-09T14:16:36;23.20;75.20
3408;DHT22;1717;50.240;8.406;2022-09-09T14:19:03;23.20;75.20
3408;DHT22;1717;50.240;8.406;2022-09-09T14:21:30;23.10;75.60
3408;DHT22;1717;50.240;8.406;2022-09-09T14:23:58;23.00;76.40
3408;DHT22;1717;50.240;8.406;2022-09-09T14:26:26;23.00;76.60
3408;DHT22;1717;50.240;8.406;2022-09-09T14:28:54;22.90;77.40
3408;DHT22;1717;50.240;8.406;2022-09-09T14:31:21;22.80;77.50
3408;DHT22;1717;50.240;8.406;2022-09-09T14:33:49;22.70;77.90
3408;DHT22;1717;50.240;8.406;2022-09-09T14:36:16;22.70;78.40
3408;DHT22;1717;50.240;8.406;2022-09-09T14:38:43;22.60;78.60
3408;DHT22;1717;50.240;8.406;2022-09-09T14:41:11;22.50;79.30
3408;DHT22;1717;50.240;8.406;2022-09-09T14:43:40;22.40;79.90
3408;DHT22;1717;50.240;8.406;2022-09-09T14:46:08;22.30;82.10
3408;DHT22;1717;50.240;8.406;2022-09-09T14:48:35;22.30;83.10
3408;DHT22;1717;50.240;8.406;2022-09-09T14:51:07;22.20;84.50
3408;DHT22;1717;50.240;8.406;2022-09-09T14:53:34;22.10;85.80
3408;DHT22;1717;50.240;8.406;2022-09-09T14:56:06;22.00;86.70
3408;DHT22;1717;50.240;8.406;2022-09-09T14:58:34;22.00;87.60
3408;DHT22;1717;50.240;8.406;2022-09-09T15:01:07;21.90;88.20
3408;DHT22;1717;50.240;8.406;2022-09-09T15:03:35;21.80;88.80
3408;DHT22;1717;50.240;8.406;2022-09-09T15:06:06;21.80;89.20
3408;DHT22;1717;50.240;8.406;2022-09-09T15:08:34;21.80;89.30
3408;DHT22;1717;50.240;8.406;2022-09-09T15:11:02;21.80;89.70
3408;DHT22;1717;50.240;8.406;2022-09-09T15:13:29;21.80;89.30
3408;DHT22;1717;50.240;8.406;2022-09-09T15:16:05;21.90;89.00
3408;DHT22;1717;50.240;8.406;2022-09-09T15:18:32;21.90;88.30
3408;DHT22;1717;50.240;8.406;2022-09-09T15:20:59;22.00;88.80
3408;DHT22;1717;50.240;8.406;2022-09-09T15:23:28;22.00;88.50
3408;DHT22;1717;50.240;8.406;2022-09-09T15:25:57;22.10;87.80
3408;DHT22;1717;50.240;8.406;2022-09-09T15:28:24;22.10;87.10
3408;DHT22;1717;50.240;8.406;2022-09-09T15:30:52;22.20;87.50
3408;DHT22;1717;50.240;8.406;2022-09-09T15:33:21;22.10;86.90
3408;DHT22;1717;50.240;8.406;2022-09-09T15:35:48;22.10;87.10
3408;DHT22;1717;50.240;8.406;2022-09-09T15:38:16;22.10;86.20
3408;DHT22;1717;50.240;8.406;2022-09-09T15:40:45;22.10;86.30
3408;DHT22;1717;50.240;8.406;2022-09-09T15:43:19;22.00;86.10
3408;DHT22;1717;50.240;8.406;2022-09-09T15:45:46;21.80;85.80
3408;DHT22;1717;50.240;8.406;2022-09-09T15:48:15;21.80;86.70
3408;DHT22;1717;50.240;8.406;2022-09-09T15:50:43;21.80;87.20
3408;DHT22;1717;50.240;8.406;2022-09-09T15:53:10;21.70;87.20
3408;DHT22;1717;50.240;8.406;2022-09-09T15:55:37;21.70;88.00
3408;DHT22;1717;50.240;8.406;2022-09-09T15:58:04;21.70;88.10
3408;DHT22;1717;50.240;8.406;2022-09-09T16:00:31;21.60;88.50
3408;DHT22;1717;50.240;8.406;2022-09-09T16:02:59;21.60;89.20
3408;DHT22;1717;50.240;8.406;2022-09-09T16:05:26;21.50;90.00
3408;DHT22;1717;50.240;8.406;2022-09-09T16:07:55;21.40;90.30
3408;DHT22;1717;50.240;8.406;2022-09-09T16:10:22;21.30;90.50
3408;DHT22;1717;50.240;8.406;2022-09-09T16:12:48;21.30;90.80
3408;DHT22;1717;50.240;8.406;2022-09-09T16:15:16;21.30;90.80
3408;DHT22;1717;50.240;8.406;2022-09-09T16:17:43;21.20;91.50
3408;DHT22;1717;50.240;8.406;2022-09-09T16:20:10;21.10;91.50
3408;DHT22;1717;50.240;8.406;2022-09-09T16:22:37;21.10;91.60
3408;DHT22;1717;50.240;8.406;2022-09-09T16:25:07;21.00;91.90
3408;DHT22;1717;50.240;8.406;2022-09-09T16:27:35;20.90;91.80
3408;DHT22;1717;50.240;8.406;2022-09-09T16:30:03;20.80;92.30
3408;DHT22;1717;50.240;8.406;2022-09-09T16:32:29;20.80;93.00
3408;DHT22;1717;50.240;8.406;2022-09-09T16:34:56;20.70;93.40
3408;DHT22;1717;50.240;8.406;2022-09-09T16:37:23;20.70;93.90